createdAt,value
2018-12-04T00:01:52.889Z,7.10
2018-12-04T00:04:21.424Z,7.10
2018-12-04T00:06:50.204Z,7.10
2018-12-04T00:09:18.708Z,7.10
2018-12-04T00:11:47.131Z,7.10
2018-12-04T00:14:15.568Z,7.20
2018-12-04T00:16:44.215Z,7.20
2018-12-04T00:19:12.810Z,7.20
2018-12-04T00:21:41.293Z,7.30
2018-12-04T00:24:09.773Z,7.30
2018-12-04T00:26:38.231Z,7.30
2018-12-04T00:29:06.674Z,7.30
2018-12-04T00:31:35.265Z,7.30
2018-12-04T00:34:03.711Z,7.30
2018-12-04T00:36:32.180Z,7.30
2018-12-04T00:39:01.792Z,7.30
2018-12-04T00:41:30.699Z,7.30
2018-12-04T00:43:59.158Z,7.30
2018-12-04T00:46:27.667Z,7.30
2018-12-04T00:48:56.114Z,7.30
2018-12-04T00:51:24.568Z,7.20
2018-12-04T00:53:53.081Z,7.20
2018-12-04T00:56:21.546Z,7.10
2018-12-04T00:58:50.122Z,7.00
2018-12-04T01:01:18.622Z,7.00
2018-12-04T01:03:47.081Z,6.90
2018-12-04T01:06:15.619Z,6.80
2018-12-04T01:08:44.277Z,6.70
2018-12-04T01:11:12.723Z,6.70
2018-12-04T01:13:41.153Z,6.60
2018-12-04T01:16:09.812Z,6.50
2018-12-04T01:18:38.304Z,6.50
2018-12-04T01:21:06.744Z,6.40
2018-12-04T01:23:35.267Z,6.40
2018-12-04T01:26:03.862Z,6.30
2018-12-04T01:28:32.474Z,6.30
2018-12-04T01:31:00.989Z,6.30
2018-12-04T01:33:29.446Z,6.20
2018-12-04T01:35:57.907Z,6.20
2018-12-04T01:38:26.698Z,6.20
2018-12-04T01:40:55.169Z,6.20
2018-12-04T01:43:23.682Z,6.20
2018-12-04T01:45:52.380Z,6.20
2018-12-04T01:48:20.861Z,6.20
2018-12-04T01:50:49.438Z,6.20
2018-12-04T01:53:18.040Z,6.20
2018-12-04T01:55:46.646Z,6.10
2018-12-04T01:58:15.093Z,6.10
2018-12-04T02:00:43.591Z,6.10
2018-12-04T02:03:12.058Z,6.10
2018-12-04T02:05:40.503Z,6.10
2018-12-04T02:08:09.047Z,6.00
2018-12-04T02:10:37.523Z,6.00
2018-12-04T02:13:06.025Z,6.00
2018-12-04T02:15:34.810Z,6.00
2018-12-04T02:18:03.292Z,6.00
2018-12-04T02:20:31.731Z,6.00
2018-12-04T02:23:00.491Z,6.00
2018-12-04T02:25:29.080Z,6.00
2018-12-04T02:27:57.709Z,6.00
2018-12-04T02:30:26.220Z,5.90
2018-12-04T02:32:54.674Z,6.00
2018-12-04T02:35:23.231Z,6.00
2018-12-04T02:37:51.791Z,6.00
2018-12-04T02:40:20.234Z,5.90
2018-12-04T02:42:48.719Z,6.00
2018-12-04T02:45:17.257Z,5.90
2018-12-04T02:47:45.757Z,6.00
2018-12-04T02:50:14.210Z,5.90
2018-12-04T02:52:42.843Z,5.90
2018-12-04T02:55:11.398Z,5.90
2018-12-04T02:57:39.885Z,5.90
2018-12-04T03:00:09.220Z,6.00
2018-12-04T03:02:37.756Z,5.90
2018-12-04T03:05:06.524Z,5.90
2018-12-04T03:07:35.049Z,5.90
2018-12-04T03:10:04.048Z,5.90
2018-12-04T03:12:32.536Z,5.90
2018-12-04T03:15:01.122Z,5.80
2018-12-04T03:17:29.569Z,5.90
2018-12-04T03:19:58.116Z,5.90
2018-12-04T03:22:26.756Z,5.80
2018-12-04T03:24:55.288Z,5.80
2018-12-04T03:27:23.848Z,5.80
2018-12-04T03:29:52.339Z,5.80
2018-12-04T03:32:20.799Z,5.80
2018-12-04T03:34:49.252Z,5.80
2018-12-04T03:37:17.899Z,5.80
2018-12-04T03:39:46.325Z,5.80
2018-12-04T03:42:15.111Z,5.80
2018-12-04T03:44:43.646Z,5.80
2018-12-04T03:47:12.114Z,5.80
2018-12-04T03:49:40.701Z,5.80
2018-12-04T03:52:09.254Z,5.80
2018-12-04T03:54:37.705Z,5.70
2018-12-04T03:57:06.153Z,5.70
2018-12-04T03:59:34.670Z,5.70
2018-12-04T04:02:03.248Z,5.70
2018-12-04T04:04:31.686Z,5.70
2018-12-04T04:07:00.323Z,5.70
2018-12-04T04:09:28.798Z,5.70
2018-12-04T04:11:57.268Z,5.70
2018-12-04T04:14:25.761Z,5.70
2018-12-04T04:16:54.388Z,5.70
2018-12-04T04:19:22.857Z,5.70
2018-12-04T04:21:51.794Z,5.70
2018-12-04T04:24:20.362Z,5.60
2018-12-04T04:26:49.108Z,5.60
2018-12-04T04:29:17.901Z,5.60
2018-12-04T04:31:47.388Z,5.60
2018-12-04T04:34:15.900Z,5.60
2018-12-04T04:36:44.443Z,5.60
2018-12-04T04:39:13.060Z,5.60
2018-12-04T04:41:41.720Z,5.60
2018-12-04T04:44:10.313Z,5.60
2018-12-04T04:46:38.890Z,5.50
2018-12-04T04:49:07.369Z,5.60
2018-12-04T04:51:35.886Z,5.50
2018-12-04T04:54:04.342Z,5.50
2018-12-04T04:56:32.971Z,5.50
2018-12-04T04:59:01.487Z,5.50
2018-12-04T05:01:30.117Z,5.50
2018-12-04T05:03:58.602Z,5.50
2018-12-04T05:06:27.113Z,5.50
2018-12-04T05:08:55.597Z,5.40
2018-12-04T05:11:24.070Z,5.40
2018-12-04T05:13:52.596Z,5.40
2018-12-04T05:16:21.196Z,5.50
2018-12-04T05:18:49.686Z,5.50
2018-12-04T05:21:18.248Z,5.50
2018-12-04T05:23:46.743Z,5.50
2018-12-04T05:26:15.202Z,5.50
2018-12-04T05:28:43.701Z,5.50
2018-12-04T05:31:12.173Z,5.50
2018-12-04T05:33:40.644Z,5.50
2018-12-04T05:36:09.160Z,5.50
2018-12-04T05:38:37.611Z,5.40
2018-12-04T05:41:06.103Z,5.40
2018-12-04T05:43:34.638Z,5.40
2018-12-04T05:46:03.123Z,5.40
2018-12-04T05:48:31.626Z,5.40
2018-12-04T05:51:00.154Z,5.40
2018-12-04T05:53:33.969Z,5.40
2018-12-04T05:56:02.531Z,5.40
2018-12-04T05:58:31.011Z,5.40
2018-12-04T06:00:59.576Z,5.40
2018-12-04T06:03:28.092Z,5.40
2018-12-04T06:05:56.542Z,5.30
2018-12-04T06:08:24.977Z,5.30
2018-12-04T06:10:53.459Z,5.30
2018-12-04T06:13:22.042Z,5.30
2018-12-04T06:15:50.487Z,5.30
2018-12-04T06:18:19.101Z,5.40
2018-12-04T06:20:47.604Z,5.40
2018-12-04T06:23:16.069Z,5.40
2018-12-04T06:25:44.590Z,5.40
2018-12-04T06:28:13.067Z,5.40
2018-12-04T06:30:41.542Z,5.40
2018-12-04T06:33:10.060Z,5.50
2018-12-04T06:35:38.529Z,5.50
2018-12-04T06:38:06.968Z,5.50
2018-12-04T06:40:35.610Z,5.50
2018-12-04T06:43:04.188Z,5.50
2018-12-04T06:45:32.639Z,5.50
2018-12-04T06:48:01.172Z,5.60
2018-12-04T06:50:29.675Z,5.50
2018-12-04T06:52:58.246Z,5.60
2018-12-04T06:55:26.762Z,5.50
2018-12-04T06:57:55.164Z,5.50
2018-12-04T07:00:24.273Z,5.50
2018-12-04T07:02:53.128Z,5.50
2018-12-04T07:05:21.788Z,5.50
2018-12-04T07:07:50.302Z,5.50
2018-12-04T07:10:18.797Z,5.50
2018-12-04T07:12:47.229Z,5.50
2018-12-04T07:15:15.715Z,5.40
2018-12-04T07:17:44.198Z,5.40
2018-12-04T07:20:12.756Z,5.40
2018-12-04T07:22:41.272Z,5.40
2018-12-04T07:25:09.848Z,5.50
2018-12-04T07:27:38.259Z,5.50
2018-12-04T07:30:08.341Z,5.50
2018-12-04T07:32:38.855Z,5.60
2018-12-04T07:35:08.488Z,5.50
2018-12-04T07:37:37.043Z,5.60
2018-12-04T07:40:06.763Z,5.60
2018-12-04T07:42:35.362Z,5.50
2018-12-04T07:45:04.421Z,5.40
2018-12-04T07:47:32.909Z,5.50
2018-12-04T07:50:01.496Z,5.40
2018-12-04T07:52:29.994Z,5.50
2018-12-04T07:54:58.940Z,5.50
2018-12-04T07:57:27.420Z,5.60
2018-12-04T07:59:55.896Z,5.60
2018-12-04T08:02:24.540Z,5.70
2018-12-04T08:04:53.012Z,5.70
2018-12-04T08:07:21.623Z,5.70
2018-12-04T08:09:50.147Z,5.80
2018-12-04T08:12:18.750Z,5.80
2018-12-04T08:14:47.331Z,5.80
2018-12-04T08:17:15.825Z,5.90
2018-12-04T08:19:44.269Z,5.90
2018-12-04T08:22:12.726Z,6.00
2018-12-04T08:24:41.234Z,6.00
2018-12-04T08:27:11.304Z,6.00
2018-12-04T08:29:39.759Z,6.10
2018-12-04T08:32:08.262Z,6.10
2018-12-04T08:34:36.738Z,6.10
2018-12-04T08:37:05.197Z,6.10
2018-12-04T08:39:33.696Z,6.20
2018-12-04T08:42:02.180Z,6.20
2018-12-04T08:44:30.596Z,6.30
2018-12-04T08:46:59.288Z,6.30
2018-12-04T08:49:27.773Z,6.30
2018-12-04T08:51:56.360Z,6.40
2018-12-04T08:54:24.886Z,6.40
2018-12-04T08:56:53.610Z,6.40
2018-12-04T08:59:22.023Z,6.40
2018-12-04T09:01:50.531Z,6.40
2018-12-04T09:04:19.302Z,6.40
2018-12-04T09:06:47.833Z,6.30
2018-12-04T09:09:16.389Z,6.30
2018-12-04T09:11:45.109Z,6.30
2018-12-04T09:14:13.611Z,6.30
2018-12-04T09:16:42.099Z,6.30
2018-12-04T09:19:10.610Z,6.30
2018-12-04T09:21:39.150Z,6.30
2018-12-04T09:24:07.775Z,6.40
2018-12-04T09:26:36.329Z,6.30
2018-12-04T09:29:04.967Z,6.40
2018-12-04T09:31:33.572Z,6.40
2018-12-04T09:34:02.223Z,6.40
2018-12-04T09:36:30.703Z,6.40
2018-12-04T09:38:59.213Z,6.40
2018-12-04T09:41:27.697Z,6.50
2018-12-04T09:43:56.161Z,6.50
2018-12-04T09:46:24.640Z,6.60
2018-12-04T09:48:53.112Z,6.60
2018-12-04T09:51:21.614Z,6.60
2018-12-04T09:53:52.160Z,6.70
2018-12-04T09:56:20.727Z,6.70
2018-12-04T09:58:49.168Z,6.70
2018-12-04T10:01:17.781Z,6.80
2018-12-04T10:03:46.281Z,6.80
2018-12-04T10:06:15.038Z,6.90
2018-12-04T10:08:43.567Z,7.00
2018-12-04T10:11:12.184Z,7.00
2018-12-04T10:13:41.308Z,7.00
2018-12-04T10:16:09.955Z,7.00
2018-12-04T10:18:38.442Z,7.10
2018-12-04T10:21:07.024Z,7.10
2018-12-04T10:23:35.535Z,7.20
2018-12-04T10:26:04.150Z,7.20
2018-12-04T10:28:32.818Z,7.30
2018-12-04T10:31:06.563Z,7.30
2018-12-04T10:33:35.021Z,7.30
2018-12-04T10:36:03.657Z,7.40
2018-12-04T10:38:32.158Z,7.40
2018-12-04T10:41:00.649Z,7.50
2018-12-04T10:43:29.115Z,7.40
2018-12-04T10:45:57.619Z,7.40
2018-12-04T10:48:26.036Z,7.50
2018-12-04T10:50:54.465Z,7.50
2018-12-04T10:53:23.064Z,7.60
2018-12-04T10:55:51.505Z,7.60
2018-12-04T10:58:19.944Z,7.70
2018-12-04T11:00:53.699Z,7.70
2018-12-04T11:03:26.496Z,7.80
2018-12-04T11:05:55.106Z,7.90
2018-12-04T11:08:23.557Z,7.90
2018-12-04T11:10:52.020Z,8.00
2018-12-04T11:13:20.773Z,8.00
2018-12-04T11:15:49.242Z,8.00
2018-12-04T11:18:17.689Z,8.10
2018-12-04T11:20:46.385Z,8.20
2018-12-04T11:23:14.843Z,8.20
2018-12-04T11:25:43.329Z,8.20
2018-12-04T11:28:11.896Z,8.30
2018-12-04T11:30:40.343Z,8.30
2018-12-04T11:33:08.843Z,8.30
2018-12-04T11:35:37.421Z,8.30
2018-12-04T11:38:05.900Z,8.30
2018-12-04T11:40:34.376Z,8.30
2018-12-04T11:43:02.848Z,8.40
2018-12-04T11:45:31.313Z,8.30
2018-12-04T11:47:59.757Z,8.30
2018-12-04T11:50:28.232Z,8.30
2018-12-04T11:52:56.742Z,8.30
2018-12-04T11:55:25.288Z,8.30
2018-12-04T11:57:53.815Z,8.30
2018-12-04T12:00:28.334Z,8.30
2018-12-04T12:02:56.834Z,8.40
2018-12-04T12:05:25.301Z,8.30
2018-12-04T12:07:53.765Z,8.40
2018-12-04T12:10:22.271Z,8.40
2018-12-04T12:12:50.761Z,8.40
2018-12-04T12:15:19.726Z,8.40
2018-12-04T12:17:48.617Z,8.40
2018-12-04T12:20:17.102Z,8.40
2018-12-04T12:22:45.596Z,8.50
2018-12-04T12:25:14.105Z,8.50
2018-12-04T12:27:43.151Z,8.60
2018-12-04T12:30:11.690Z,8.60
2018-12-04T12:32:40.321Z,8.60
2018-12-04T12:35:08.958Z,8.60
2018-12-04T12:37:37.400Z,8.60
2018-12-04T12:40:08.127Z,8.60
2018-12-04T12:42:36.609Z,8.70
2018-12-04T12:45:06.806Z,8.70
2018-12-04T12:47:35.306Z,8.70
2018-12-04T12:50:04.138Z,8.70
2018-12-04T12:52:32.584Z,8.70
2018-12-04T12:55:01.117Z,8.80
2018-12-04T12:57:29.569Z,8.80
2018-12-04T12:59:58.227Z,8.80
2018-12-04T13:02:26.876Z,8.80
2018-12-04T13:04:55.370Z,8.80
2018-12-04T13:07:23.846Z,8.80
2018-12-04T13:09:52.459Z,8.80
2018-12-04T13:12:20.947Z,8.80
2018-12-04T13:14:49.392Z,8.80
2018-12-04T13:17:17.941Z,8.80
2018-12-04T13:19:46.426Z,8.80
2018-12-04T13:22:14.919Z,8.80
2018-12-04T13:24:43.568Z,8.80
2018-12-04T13:27:12.166Z,8.80
2018-12-04T13:29:40.677Z,8.80
2018-12-04T13:32:09.255Z,8.80
2018-12-04T13:34:37.721Z,8.80
2018-12-04T13:37:06.334Z,8.80
2018-12-04T13:39:34.806Z,8.80
2018-12-04T13:42:03.337Z,8.80
2018-12-04T13:44:31.815Z,8.80
2018-12-04T13:47:00.331Z,8.80
2018-12-04T13:49:28.804Z,8.80
2018-12-04T13:51:57.310Z,8.80
2018-12-04T13:54:25.845Z,8.90
2018-12-04T13:56:54.432Z,8.90
2018-12-04T13:59:22.937Z,8.90
2018-12-04T14:01:51.599Z,8.90
2018-12-04T14:04:20.217Z,8.90
2018-12-04T14:06:49.321Z,8.90
2018-12-04T14:09:17.972Z,8.90
2018-12-04T14:11:46.711Z,8.90
2018-12-04T14:14:15.387Z,8.90
2018-12-04T14:16:43.921Z,8.90
2018-12-04T14:19:12.581Z,8.90
2018-12-04T14:21:41.107Z,8.80
2018-12-04T14:24:10.536Z,8.80
2018-12-04T14:26:39.576Z,8.80
2018-12-04T14:29:08.155Z,8.80
2018-12-04T14:31:36.767Z,8.80
2018-12-04T14:34:05.237Z,8.80
2018-12-04T14:36:33.734Z,8.80
2018-12-04T14:39:02.444Z,8.70
2018-12-04T14:41:30.965Z,8.70
2018-12-04T14:43:59.446Z,8.70
2018-12-04T14:46:28.014Z,8.70
2018-12-04T14:48:56.558Z,8.70
2018-12-04T14:51:25.186Z,8.70
2018-12-04T14:53:53.808Z,8.70
2018-12-04T14:56:22.366Z,8.70
2018-12-04T14:58:50.936Z,8.70
2018-12-04T15:01:19.499Z,8.60
2018-12-04T15:03:49.387Z,8.60
2018-12-04T15:06:18.070Z,8.60
2018-12-04T15:08:46.715Z,8.60
2018-12-04T15:11:15.175Z,8.60
2018-12-04T15:13:43.688Z,8.60
2018-12-04T15:16:12.280Z,8.50
2018-12-04T15:18:41.076Z,8.50
2018-12-04T15:21:09.954Z,8.50
2018-12-04T15:23:38.719Z,8.40
2018-12-04T15:26:07.405Z,8.40
2018-12-04T15:28:36.016Z,8.40
2018-12-04T15:31:04.704Z,8.30
2018-12-04T15:33:33.273Z,8.30
2018-12-04T15:36:02.042Z,8.30
2018-12-04T15:38:30.760Z,8.30
2018-12-04T15:40:59.360Z,8.30
2018-12-04T15:43:27.976Z,8.20
2018-12-04T15:45:56.600Z,8.20
2018-12-04T15:48:25.103Z,8.20
2018-12-04T15:50:59.670Z,8.10
2018-12-04T15:53:24.148Z,8.10
2018-12-04T15:55:52.783Z,8.10
2018-12-04T15:58:21.257Z,8.00
2018-12-04T16:00:49.796Z,8.00
2018-12-04T16:03:18.257Z,8.00
2018-12-04T16:07:10.985Z,8.00
2018-12-04T16:09:39.452Z,7.90
2018-12-04T16:12:07.910Z,7.90
2018-12-04T16:14:36.392Z,7.80
2018-12-04T16:17:04.882Z,7.80
2018-12-04T16:19:33.348Z,7.80
2018-12-04T16:22:01.871Z,7.80
2018-12-04T16:24:30.394Z,7.70
2018-12-04T16:26:58.831Z,7.70
2018-12-04T16:29:27.513Z,7.70
2018-12-04T16:31:56.233Z,7.70
2018-12-04T16:34:24.727Z,7.70
2018-12-04T16:36:53.269Z,7.70
2018-12-04T16:39:21.740Z,7.60
2018-12-04T16:41:50.829Z,7.60
2018-12-04T16:44:19.490Z,7.60
2018-12-04T16:46:47.948Z,7.60
2018-12-04T16:49:16.427Z,7.60
2018-12-04T16:51:44.961Z,7.60
2018-12-04T16:54:13.556Z,7.60
2018-12-04T16:56:42.121Z,7.60
2018-12-04T16:59:10.671Z,7.60
2018-12-04T17:01:39.165Z,7.50
2018-12-04T17:04:07.625Z,7.50
2018-12-04T17:06:36.224Z,7.50
2018-12-04T17:09:07.369Z,7.50
2018-12-04T17:11:35.927Z,7.50
2018-12-04T17:14:04.696Z,7.50
2018-12-04T17:16:33.378Z,7.50
2018-12-04T17:19:01.854Z,7.40
2018-12-04T17:21:30.380Z,7.40
2018-12-04T17:23:59.057Z,7.40
2018-12-04T17:26:27.510Z,7.40
2018-12-04T17:28:56.066Z,7.40
2018-12-04T17:31:24.516Z,7.40
2018-12-04T17:33:53.005Z,7.40
2018-12-04T17:36:21.574Z,7.40
2018-12-04T17:38:50.027Z,7.40
2018-12-04T17:41:18.501Z,7.40
2018-12-04T17:43:47.681Z,7.40
2018-12-04T17:46:16.136Z,7.40
2018-12-04T17:48:44.665Z,7.30
2018-12-04T17:51:13.347Z,7.40
2018-12-04T17:55:06.076Z,7.30
2018-12-04T17:57:34.696Z,7.30
2018-12-04T18:00:03.973Z,7.30
2018-12-04T18:02:32.415Z,7.30
2018-12-04T18:05:00.944Z,7.20
2018-12-04T18:07:29.425Z,7.20
2018-12-04T18:09:58.038Z,7.10
2018-12-04T18:12:29.655Z,7.20
2018-12-04T18:14:58.159Z,7.10
2018-12-04T18:17:26.606Z,7.10
2018-12-04T18:19:55.131Z,7.10
2018-12-04T18:22:23.768Z,7.10
2018-12-04T18:24:52.285Z,7.10
2018-12-04T18:27:20.783Z,7.10
2018-12-04T18:29:49.280Z,7.10
2018-12-04T18:32:17.743Z,7.10
2018-12-04T18:34:46.259Z,7.00
2018-12-04T18:37:14.733Z,7.00
2018-12-04T18:39:43.440Z,7.00
2018-12-04T18:42:11.970Z,7.00
2018-12-04T18:44:40.597Z,7.00
2018-12-04T18:47:09.097Z,7.00
2018-12-04T18:49:37.649Z,7.00
2018-12-04T18:52:06.128Z,7.00
2018-12-04T18:54:34.813Z,7.00
2018-12-04T18:57:03.399Z,7.00
2018-12-04T18:59:31.995Z,7.00
2018-12-04T19:02:00.689Z,7.00
2018-12-04T19:04:29.372Z,7.00
2018-12-04T19:06:57.846Z,7.00
2018-12-04T19:09:26.281Z,7.00
2018-12-04T19:11:55.344Z,7.00
2018-12-04T19:14:24.122Z,7.00
2018-12-04T19:16:54.404Z,7.00
2018-12-04T19:19:23.272Z,7.00
2018-12-04T19:21:51.810Z,7.00
2018-12-04T19:24:20.424Z,7.00
2018-12-04T19:26:48.985Z,7.00
2018-12-04T19:29:17.764Z,7.00
2018-12-04T19:31:46.490Z,7.00
2018-12-04T19:34:15.048Z,7.00
2018-12-04T19:36:43.480Z,7.00
2018-12-04T19:39:11.938Z,7.00
2018-12-04T19:41:40.505Z,6.90
2018-12-04T19:44:09.102Z,7.00
2018-12-04T19:46:37.700Z,7.00
2018-12-04T19:49:06.246Z,6.90
2018-12-04T19:51:34.699Z,6.90
2018-12-04T19:54:03.406Z,6.90
2018-12-04T19:56:32.096Z,6.90
2018-12-04T19:59:00.730Z,6.90
2018-12-04T20:01:29.259Z,6.90
2018-12-04T20:03:57.800Z,6.90
2018-12-04T20:06:26.325Z,6.80
2018-12-04T20:08:57.812Z,6.80
2018-12-04T20:11:26.343Z,6.80
2018-12-04T20:13:54.813Z,6.80
2018-12-04T20:16:23.302Z,6.80
2018-12-04T20:18:51.810Z,6.80
2018-12-04T20:21:20.388Z,6.80
2018-12-04T20:23:48.835Z,6.80
2018-12-04T20:26:17.354Z,6.80
2018-12-04T20:28:45.896Z,6.80
2018-12-04T20:31:14.391Z,6.80
2018-12-04T20:33:43.108Z,6.80
2018-12-04T20:36:11.569Z,6.80
2018-12-04T20:38:40.647Z,6.80
2018-12-04T20:41:09.145Z,6.80
2018-12-04T20:43:37.619Z,6.70
2018-12-04T20:46:06.292Z,6.70
2018-12-04T20:48:38.082Z,6.70
2018-12-04T20:51:06.535Z,6.70
2018-12-04T20:53:35.095Z,6.70
2018-12-04T20:56:03.744Z,6.70
2018-12-04T20:58:32.199Z,6.60
2018-12-04T21:01:00.695Z,6.70
2018-12-04T21:03:29.446Z,6.60
2018-12-04T21:05:57.927Z,6.60
2018-12-04T21:08:26.466Z,6.60
2018-12-04T21:10:54.956Z,6.60
2018-12-04T21:14:48.442Z,6.60
2018-12-04T21:17:16.982Z,6.60
2018-12-04T21:19:45.462Z,6.60
2018-12-04T21:22:13.959Z,6.60
2018-12-04T21:24:42.497Z,6.60
2018-12-04T21:27:16.210Z,6.50
2018-12-04T21:29:50.106Z,6.60
2018-12-04T21:32:24.029Z,6.50
2018-12-04T21:34:58.008Z,6.50
2018-12-04T21:37:31.680Z,6.50
2018-12-04T21:40:05.740Z,6.50
2018-12-04T21:42:39.699Z,6.50
2018-12-04T21:45:13.624Z,6.50
2018-12-04T21:47:47.402Z,6.50
2018-12-04T21:50:16.061Z,6.50
2018-12-04T21:52:44.480Z,6.40
2018-12-04T21:55:13.004Z,6.40
2018-12-04T21:57:41.618Z,6.40
2018-12-04T22:00:10.333Z,6.40
2018-12-04T22:02:38.787Z,6.40
2018-12-04T22:05:07.773Z,6.40
2018-12-04T22:07:36.368Z,6.40
2018-12-04T22:10:05.364Z,6.40
2018-12-04T22:12:34.017Z,6.40
2018-12-04T22:15:02.636Z,6.40
2018-12-04T22:17:31.265Z,6.40
2018-12-04T22:19:59.785Z,6.40
2018-12-04T22:22:28.292Z,6.30
2018-12-04T22:24:56.842Z,6.40
2018-12-04T22:27:25.390Z,6.40
2018-12-04T22:29:53.976Z,6.40
2018-12-04T22:32:22.460Z,6.40
2018-12-04T22:34:50.981Z,6.40
2018-12-04T22:37:19.497Z,6.40
2018-12-04T22:39:51.320Z,6.40
2018-12-04T22:42:19.852Z,6.40
2018-12-04T22:44:48.333Z,6.40
2018-12-04T22:47:18.256Z,6.40
2018-12-04T22:49:46.870Z,6.40
2018-12-04T22:52:15.322Z,6.40
2018-12-04T22:54:43.811Z,6.40
2018-12-04T22:57:12.359Z,6.40
2018-12-04T22:59:40.826Z,6.40
2018-12-04T23:02:09.300Z,6.40
2018-12-04T23:04:37.848Z,6.40
2018-12-04T23:07:06.486Z,6.40
2018-12-04T23:09:34.932Z,6.40
2018-12-04T23:12:03.597Z,6.40
2018-12-04T23:14:32.192Z,6.40
2018-12-04T23:17:00.640Z,6.40
2018-12-04T23:19:29.272Z,6.40
2018-12-04T23:21:57.716Z,6.30
2018-12-04T23:24:26.376Z,6.30
2018-12-04T23:26:54.855Z,6.30
2018-12-04T23:29:23.300Z,6.30
2018-12-04T23:31:52.071Z,6.30
2018-12-04T23:34:20.713Z,6.30
2018-12-04T23:36:49.289Z,6.20
2018-12-04T23:39:17.951Z,6.20
2018-12-04T23:41:46.583Z,6.20
2018-12-04T23:44:15.605Z,6.20
2018-12-04T23:46:44.184Z,6.20
2018-12-04T23:49:12.758Z,6.20
2018-12-04T23:51:41.336Z,6.20
2018-12-04T23:54:09.911Z,6.20
2018-12-04T23:56:38.523Z,6.10
2018-12-04T23:59:07.101Z,6.10
